Portada
METAR-TAF:

METAR-TAF

Aeroports :

Beirut, Líban

latitud: 33-49N, longitud: 035-29E, altitud: 29 m

Observació

L'informe es va fer fa 39 minuts, a les 16:00 UTC
Vent 4 kt del Nord, variant entre Nord i Nord-Est
Temperatura 20°C
Humitat 73%
Pressió 1020 hPa
Visibilitat 10 km o més
Escasses núvols a una alçada de 2600 ft

METAR: OLBA 011600Z 01004KT 350V050 9999 FEW026 20/15 Q1020 NOSIG

Hora: 18:39 (16:39 UTC)

Pronòstic

L'informe es va fer fa 6 hores i 39 minuts, a les 10:00 UTC
Pronòstic vàlid del 01 a les 12 UTC al 02 a les 18 UTC
Vent 8 kt del Nord/Nord-Oest
Visibilitat: 8000 m
Evolucionant progressivament
l' 01 a les 20 UTC al 01 a les 22 UTC
Vent 4 kt del Sud-Est
Evolucionant progressivament
l' 02 a les 06 UTC al 02 a les 08 UTC
Vent 10 kt del Nord

TAF: OLBA 011000Z 0112/0218 33008KT 8000 NSC BECMG 0120/0122 14004KT BECMG 0206/0208 36010KT

Observacions i pronòstics meteorològics de més de 4000 aeroports (METAR i TAF).

Les estacions disponibles són els punts grocs i vermells al mapa.

Posi el ratolí al punt desitjat per veure el nom de l'estació.

Feu clic per veure les observacions i els pronòstics meteorològics.

Per canviar el mapa: feu clic els botons verds amb una creu de color negre per apropar; al botó verd amb un guió per allunyar la imatge; o en les fletxes verdes per a mapes adjacents.


METAR-TAF: